Portada
METAR-TAF:

METAR-TAF

Aeropuertos :

Aeropuerto de Biskra

Biskra, Argelia

latitud: 34-48N, longitud: 005-44E, altitud: 87 m

Observación

El informe se hizo hace 49 minutos, a las 15:00 UTC
Viento 6 kt del norte
Temperatura 17°C
Humedad 32%
Presión 1028 hPa
Visibilidad 10 km o más
sin nubes por debajo de 1500 m y sin presencia de cumulonimbus.

METAR: DAUB 171500Z 35006KT CAVOK 17/M00 Q1028

Hora: 16:49 (15:49 UTC)

Pronóstico

El informe se hizo hace 4 horas y 49 minutos, a las 11:00 UTC
Pronóstico válido del 17 a las 12 UTC al 18 a las 12 UTC
Viento 12 kt del noroeste
Visibilidad 10 km o más
sin nubes por debajo de 1500 m y sin presencia de cumulonimbus.
Evolucionando progresivamente
del 18 a las 07 UTC al 18 a las 09 UTC
Viento 8 kt del norte-noreste

TAF: DAUB 171100Z 1712/1812 31012KT CAVOK BECMG 1807/1809 02008KT

Observaciones y pronósticos meteorológicos de más de 4000 aeropuertos (mensajes METAR y TAF).

Los puntos amarillos y rojos representan las estaciones disponibles.

Ponga el ratón en el punto deseado para ver el nombre de la estación.

Haga clic para ver las observaciones y los pronósticos meteorológicos.

Para cambiar el mapa : haga clic en los botones verdes con una cruz de color negro para hacer un zoom, en el botón verde con un guión para alejar o en las flechas verdes para mapas adyacentes.


METAR-TAF: